Time;durP1;ratioP1;P1;durP2;ratioP2;P2;SDS_P1;SDS_P2;PMS_P1;PMS_P2;Temp;Humidity;BMP_temperature;BMP_pressure;BME280_temperature;BME280_humidity;BME280_pressure;Samples;Min_cycle;Max_cycle;Signal;HPM_P1;HPM_P2
2021/09/10 00:01:37;;;;;;;2.40;1.13;;;27.30;99.90;;;;;;6229366;23;20169;-90
2021/09/10 00:04:10;;;;;;;2.30;0.93;;;27.00;99.90;;;;;;6234499;23;20168;-90
2021/09/10 00:06:43;;;;;;;3.20;1.20;;;27.20;99.90;;;;;;6233460;23;20172;-90
2021/09/10 00:09:14;;;;;;;19.57;1.30;;;27.30;99.90;;;;;;6210688;23;20177;-91
2021/09/10 00:11:47;;;;;;;1.50;1.20;;;27.50;99.90;;;;;;6215526;23;20219;-93
2021/09/10 00:14:19;;;;;;;1.50;0.90;;;27.50;99.90;;;;;;6204948;23;20192;-92
2021/09/10 00:16:53;;;;;;;3.33;1.40;;;27.50;99.90;;;;;;6177767;23;20166;-91
2021/09/10 00:19:25;;;;;;;9.10;1.03;;;27.40;99.90;;;;;;6201796;23;20185;-90
2021/09/10 00:21:56;;;;;;;13.80;1.53;;;27.10;99.90;;;;;;6203979;23;20169;-90
2021/09/10 00:24:28;;;;;;;0.80;0.80;;;27.10;99.90;;;;;;6201379;23;20161;-90
2021/09/10 00:27:00;;;;;;;8.20;1.10;;;27.20;99.90;;;;;;6193108;23;20216;-91
2021/09/10 00:29:32;;;;;;;10.03;1.40;;;27.30;99.90;;;;;;6207444;23;20173;-91
2021/09/10 00:34:56;;;;;;;10.90;1.10;;;27.70;99.90;;;;;;6211213;23;20165;-90
2021/09/10 00:37:29;;;;;;;11.90;1.70;;;27.90;99.90;;;;;;6207297;23;20177;-90
2021/09/10 00:42:47;;;;;;;4.17;1.00;;;28.00;99.90;;;;;;6204095;23;20191;-91
2021/09/10 00:45:22;;;;;;;11.47;1.40;;;28.20;99.90;;;;;;6191341;23;20200;-91
2021/09/10 00:48:00;;;;;;;1.30;1.20;;;27.70;99.90;;;;;;6202293;23;20181;-90
2021/09/10 00:50:31;;;;;;;7.53;1.10;;;27.40;99.90;;;;;;6206074;23;20168;-95
2021/09/10 00:53:03;;;;;;;1.10;1.00;;;27.30;99.90;;;;;;6204514;23;20507;-91
2021/09/10 00:55:39;;;;;;;1.97;1.20;;;27.20;99.90;;;;;;6203938;23;20184;-91
2021/09/10 00:58:10;;;;;;;2.77;1.10;;;27.10;99.90;;;;;;6206262;23;20224;-90
2021/09/10 01:00:43;;;;;;;7.30;1.50;;;27.30;99.90;;;;;;6210498;23;20164;-90
2021/09/10 01:03:38;;;;;;;4.30;1.33;;;27.30;99.90;;;;;;6207247;23;20181;-91
2021/09/10 01:11:27;;;;;;;13.40;1.77;;;27.20;99.90;;;;;;6230473;23;20250;-90
2021/09/10 01:13:59;;;;;;;2.47;1.50;;;27.00;99.90;;;;;;6228865;23;20187;-90
2021/09/10 01:16:31;;;;;;;1.70;1.60;;;26.80;99.90;;;;;;6235505;23;20156;-91
2021/09/10 01:19:33;;;;;;;30.83;3.17;;;26.70;99.90;;;;;;6229770;23;20864;-89
2021/09/10 01:22:08;;;;;;;1.77;1.40;;;26.70;99.90;;;;;;6236982;23;20172;-90
2021/09/10 01:25:04;;;;;;;3.20;1.30;;;26.70;99.90;;;;;;6235255;23;20176;-90
2021/09/10 01:27:51;;;;;;;1.30;1.17;;;26.50;99.90;;;;;;6230875;22;20204;-90
2021/09/10 01:30:25;;;;;;;1.67;1.47;;;26.50;99.90;;;;;;6234302;23;20181;-90
2021/09/10 01:32:56;;;;;;;2.80;1.50;;;26.20;99.90;;;;;;6236317;23;20164;-96
2021/09/10 01:35:28;;;;;;;1.57;1.30;;;26.00;99.90;;;;;;6235307;23;20183;-96
2021/09/10 01:38:00;;;;;;;3.67;1.20;;;25.70;99.90;;;;;;6236935;23;20243;-96
2021/09/10 01:40:35;;;;;;;1.83;1.20;;;25.50;99.90;;;;;;6233642;23;20280;-96
2021/09/10 01:43:07;;;;;;;1.43;1.33;;;25.40;99.90;;;;;;6235389;23;20175;-96
2021/09/10 01:45:39;;;;;;;1.67;1.57;;;25.30;99.90;;;;;;6238371;23;20172;-96
2021/09/10 01:48:12;;;;;;;4.03;1.40;;;25.20;99.90;;;;;;6241537;23;20169;-96
2021/09/10 01:50:44;;;;;;;1.40;1.30;;;25.10;99.90;;;;;;6225794;23;20565;-96
2021/09/10 01:53:17;;;;;;;2.27;1.27;;;25.00;99.90;;;;;;6243605;23;20216;-96
2021/09/10 01:55:52;;;;;;;2.57;1.27;;;25.00;99.90;;;;;;6241479;23;20191;-96
2021/09/10 01:58:24;;;;;;;1.30;1.20;;;24.90;99.90;;;;;;6242927;23;20218;-94
2021/09/10 02:00:57;;;;;;;2.37;1.40;;;24.90;99.90;;;;;;6242898;23;20185;-96
2021/09/10 02:03:30;;;;;;;2.87;1.40;;;24.70;99.90;;;;;;6239778;23;20611;-96
2021/09/10 02:06:04;;;;;;;1.60;1.30;;;24.70;99.90;;;;;;6212016;23;20184;-96
2021/09/10 02:08:36;;;;;;;2.47;1.20;;;24.60;99.90;;;;;;6236073;23;20175;-96
2021/09/10 02:11:09;;;;;;;1.33;1.10;;;24.50;99.90;;;;;;6238331;23;20212;-96
2021/09/10 02:13:42;;;;;;;1.13;1.03;;;24.40;99.90;;;;;;6238347;23;20173;-96
2021/09/10 02:16:14;;;;;;;2.67;1.10;;;24.40;99.90;;;;;;6239154;23;20169;-96
2021/09/10 02:18:52;;;;;;;1.97;0.97;;;24.30;99.90;;;;;;6239177;23;20196;-96
2021/09/10 02:21:23;;;;;;;1.50;1.40;;;24.20;99.90;;;;;;6238569;23;20688;-96
2021/09/10 02:23:54;;;;;;;1.33;1.23;;;24.10;99.90;;;;;;6237490;23;20172;-96
2021/09/10 02:26:32;;;;;;;1.63;1.33;;;24.00;99.90;;;;;;6238781;23;20207;-96
2021/09/10 02:29:07;;;;;;;1.50;1.37;;;24.00;99.90;;;;;;6238544;23;20195;-96
2021/09/10 02:31:40;;;;;;;1.63;1.23;;;23.90;99.90;;;;;;6237241;23;20176;-96
2021/09/10 02:34:14;;;;;;;1.27;1.17;;;23.80;99.90;;;;;;6238828;23;20230;-96
2021/09/10 02:36:46;;;;;;;2.10;1.00;;;23.70;99.90;;;;;;6238177;23;20203;-96
2021/09/10 02:39:20;;;;;;;2.93;1.20;;;23.60;99.90;;;;;;6239254;23;20200;-96
2021/09/10 02:41:54;;;;;;;5.13;1.83;;;23.60;99.90;;;;;;6238496;23;20378;-96
2021/09/10 02:44:26;;;;;;;0.93;0.87;;;23.40;99.90;;;;;;6213224;23;20226;-96
2021/09/10 02:46:58;;;;;;;2.83;0.90;;;23.40;99.90;;;;;;6240244;23;20180;-96
2021/09/10 02:49:30;;;;;;;3.47;2.03;;;23.30;99.90;;;;;;6238429;23;20168;-96
2021/09/10 02:52:03;;;;;;;0.80;0.70;;;23.10;99.90;;;;;;6238587;23;20200;-96
2021/09/10 02:54:34;;;;;;;3.43;0.80;;;22.90;99.90;;;;;;6239268;23;20248;-96
2021/09/10 02:57:09;;;;;;;2.87;0.60;;;22.90;99.90;;;;;;6237983;23;20172;-96
2021/09/10 03:02:33;;;;;;;0.60;0.40;;;22.70;99.90;;;;;;6239241;23;20184;-96
2021/09/10 03:05:06;;;;;;;0.80;0.37;;;22.50;99.90;;;;;;6191402;23;20176;-96
2021/09/10 03:07:37;;;;;;;0.60;0.40;;;22.50;99.90;;;;;;6235612;23;20207;-96
2021/09/10 03:10:11;;;;;;;0.83;0.30;;;22.40;99.90;;;;;;6238487;23;20184;-96
2021/09/10 03:12:50;;;;;;;3.37;0.57;;;22.30;99.90;;;;;;6227853;23;20235;-96
2021/09/10 03:15:22;;;;;;;0.47;0.40;;;22.20;99.90;;;;;;6242871;23;20211;-96
2021/09/10 03:17:57;;;;;;;2.27;0.40;;;22.10;99.90;;;;;;6241697;23;20186;-96
2021/09/10 03:20:46;;;;;;;0.53;0.43;;;22.10;99.90;;;;;;6202240;23;20231;-96
2021/09/10 03:23:19;;;;;;;1.43;0.40;;;22.00;99.90;;;;;;6209302;23;20191;-95
2021/09/10 03:25:50;;;;;;;0.87;0.40;;;21.90;99.90;;;;;;6210945;23;20195;-95
2021/09/10 03:28:24;;;;;;;0.77;0.60;;;21.90;99.90;;;;;;6210843;23;20227;-95
2021/09/10 03:30:56;;;;;;;0.43;0.30;;;21.80;99.90;;;;;;6212290;23;20181;-96
2021/09/10 03:33:29;;;;;;;2.57;0.63;;;21.60;99.90;;;;;;6213223;23;20188;-95
2021/09/10 03:36:02;;;;;;;3.17;0.83;;;21.50;99.90;;;;;;6211569;23;20165;-96
2021/09/10 03:38:34;;;;;;;0.80;0.50;;;21.50;99.90;;;;;;6208769;23;20196;-95
2021/09/10 03:41:06;;;;;;;1.73;0.50;;;21.40;99.90;;;;;;6198013;23;20432;-95
2021/09/10 03:43:42;;;;;;;0.60;0.60;;;21.50;99.90;;;;;;6202706;23;20193;-96
2021/09/10 03:46:14;;;;;;;0.87;0.50;;;21.40;99.90;;;;;;6197695;23;20176;-95
2021/09/10 03:48:47;;;;;;;2.13;0.77;;;21.30;99.90;;;;;;6197001;23;20213;-95
2021/09/10 03:51:19;;;;;;;4.33;0.70;;;21.30;99.90;;;;;;6201371;23;20169;-95
2021/09/10 03:56:18;;;;;;;1.27;0.70;;;21.10;99.90;;;;;;6227097;23;20176;-95
2021/09/10 03:58:51;;;;;;;2.23;1.00;;;21.00;99.90;;;;;;6227081;23;20259;-96
2021/09/10 04:01:23;;;;;;;2.60;1.20;;;21.00;99.90;;;;;;6233527;23;20226;-95
2021/09/10 04:03:55;;;;;;;1.03;0.67;;;20.90;99.90;;;;;;6201800;23;20176;-95
2021/09/10 04:06:29;;;;;;;0.60;0.57;;;20.80;99.90;;;;;;6200702;23;20211;-95
2021/09/10 04:09:01;;;;;;;3.33;0.70;;;20.80;99.90;;;;;;6230132;23;20168;-96
2021/09/10 04:11:33;;;;;;;2.23;0.80;;;20.70;99.90;;;;;;6237900;23;20169;-95
2021/09/10 04:14:08;;;;;;;1.20;1.00;;;20.60;99.90;;;;;;6241551;23;20161;-94
2021/09/10 04:16:39;;;;;;;1.53;0.60;;;20.50;99.90;;;;;;6217040;23;20168;-95
2021/09/10 04:19:12;;;;;;;1.10;0.90;;;20.50;99.90;;;;;;6185163;23;20196;-94
2021/09/10 04:21:44;;;;;;;1.70;0.90;;;20.40;99.90;;;;;;6242826;23;20153;-94
2021/09/10 04:24:17;;;;;;;2.20;0.97;;;20.30;99.90;;;;;;6242516;23;20160;-95
2021/09/10 04:26:49;;;;;;;2.20;0.80;;;20.20;99.90;;;;;;6239855;23;20232;-95
2021/09/10 04:29:23;;;;;;;2.63;0.90;;;20.10;99.90;;;;;;6212316;23;20261;-95
2021/09/10 04:31:55;;;;;;;1.00;0.70;;;20.10;99.90;;;;;;6238437;23;20175;-96
2021/09/10 04:34:27;;;;;;;2.03;0.70;;;20.00;99.90;;;;;;6233386;23;20231;-95
2021/09/10 04:36:58;;;;;;;1.77;0.77;;;20.00;99.90;;;;;;6229805;23;20180;-96
2021/09/10 04:39:29;;;;;;;2.40;0.80;;;19.90;99.90;;;;;;6235928;23;20204;-95
2021/09/10 04:42:02;;;;;;;1.70;0.80;;;19.90;99.90;;;;;;6238734;23;20169;-95
2021/09/10 04:44:39;;;;;;;1.63;0.90;;;19.90;99.90;;;;;;6234629;23;20168;-95
2021/09/10 04:47:11;;;;;;;2.90;1.00;;;19.80;99.90;;;;;;6234820;23;20173;-95
2021/09/10 04:49:43;;;;;;;3.03;0.70;;;19.70;99.90;;;;;;6204530;23;20677;-95
2021/09/10 04:52:15;;;;;;;1.37;0.90;;;19.70;99.90;;;;;;6239851;23;20164;-95
2021/09/10 04:54:47;;;;;;;1.87;0.90;;;19.60;99.90;;;;;;6240412;23;20200;-96
2021/09/10 04:57:18;;;;;;;1.93;0.90;;;19.60;99.90;;;;;;6241774;23;20169;-95
2021/09/10 04:59:53;;;;;;;2.83;1.20;;;19.50;99.90;;;;;;6209108;23;20227;-95
2021/09/10 05:02:25;;;;;;;3.93;1.27;;;19.50;99.90;;;;;;6231044;23;20203;-95
2021/09/10 05:04:56;;;;;;;2.83;0.87;;;19.40;99.90;;;;;;6228947;23;20188;-96
2021/09/10 05:07:28;;;;;;;3.70;1.00;;;19.40;99.90;;;;;;6204623;23;20176;-96
2021/09/10 05:10:00;;;;;;;1.73;0.80;;;19.30;99.90;;;;;;6231197;23;20550;-96
2021/09/10 05:12:31;;;;;;;1.97;1.00;;;19.30;99.90;;;;;;6235541;23;20191;-95
2021/09/10 05:15:05;;;;;;;1.37;0.93;;;19.20;99.90;;;;;;6242762;23;20154;-94
2021/09/10 05:17:36;;;;;;;1.60;1.10;;;19.20;99.90;;;;;;6242950;23;20168;-95
2021/09/10 05:22:44;;;;;;;3.53;1.10;;;19.10;99.90;;;;;;6240336;23;21027;-93
2021/09/10 05:25:16;;;;;;;4.10;1.00;;;19.00;99.90;;;;;;6239007;23;20219;-91
2021/09/10 05:27:48;;;;;;;3.80;1.10;;;18.90;99.90;;;;;;6243138;23;20176;-94
2021/09/10 05:33:00;;;;;;;1.40;0.90;;;18.80;99.90;;;;;;6239447;23;20247;-94
2021/09/10 05:35:31;;;;;;;1.53;0.97;;;18.70;99.90;;;;;;6239879;23;20187;-94
2021/09/10 05:38:03;;;;;;;1.73;1.10;;;18.70;99.90;;;;;;6240530;23;20168;-93
2021/09/10 05:40:35;;;;;;;2.90;1.30;;;18.70;99.90;;;;;;6239325;23;20244;-94
2021/09/10 05:43:10;;;;;;;2.13;1.00;;;18.60;99.90;;;;;;6235159;23;20188;-94
2021/09/10 05:45:42;;;;;;;3.43;1.43;;;18.50;99.90;;;;;;6234091;23;20180;-95
2021/09/10 05:48:18;;;;;;;3.73;1.30;;;18.40;99.90;;;;;;6208333;23;20168;-95
2021/09/10 05:50:50;;;;;;;2.40;1.40;;;18.40;99.90;;;;;;6231919;23;20183;-94
2021/09/10 05:53:22;;;;;;;2.17;1.30;;;18.40;99.90;;;;;;6230394;23;20165;-95
2021/09/10 05:55:53;;;;;;;1.40;1.20;;;18.40;99.90;;;;;;6228049;23;20168;-95
2021/09/10 05:58:25;;;;;;;2.17;1.37;;;18.40;99.90;;;;;;6234883;23;20180;-95
2021/09/10 06:00:56;;;;;;;2.07;1.40;;;18.40;99.90;;;;;;6202636;23;20211;-95
2021/09/10 06:03:30;;;;;;;1.90;1.40;;;18.30;99.90;;;;;;6228669;23;20188;-94
2021/09/10 06:06:03;;;;;;;4.00;1.60;;;18.30;99.90;;;;;;6229591;23;20168;-94
2021/09/10 06:08:35;;;;;;;2.17;1.47;;;18.30;99.90;;;;;;6224229;23;20183;-94
2021/09/10 06:11:17;;;;;;;2.47;1.63;;;18.20;99.90;;;;;;6228595;23;20224;-94
2021/09/10 06:13:52;;;;;;;1.83;1.60;;;18.30;99.90;;;;;;6240754;23;20164;-94
2021/09/10 06:16:25;;;;;;;2.70;1.63;;;18.20;99.90;;;;;;6237983;23;20351;-95
2021/09/10 06:19:02;;;;;;;2.27;1.67;;;18.20;99.90;;;;;;6213822;23;20618;-94
2021/09/10 06:21:35;;;;;;;2.73;1.93;;;18.20;99.90;;;;;;6240431;23;20198;-95
2021/09/10 06:24:13;;;;;;;1.90;1.77;;;18.10;99.90;;;;;;6240221;23;20198;-95
2021/09/10 06:26:50;;;;;;;4.90;1.80;;;18.10;99.90;;;;;;6241109;23;20187;-95
2021/09/10 06:29:21;;;;;;;4.63;2.13;;;18.10;99.90;;;;;;6240937;23;20173;-92
2021/09/10 06:31:53;;;;;;;3.70;2.00;;;18.00;99.90;;;;;;6241683;23;20199;-94
2021/09/10 06:34:27;;;;;;;3.10;2.10;;;18.00;99.90;;;;;;6242735;23;20203;-95
2021/09/10 06:36:59;;;;;;;2.03;1.83;;;18.00;99.90;;;;;;6217115;23;20203;-96
2021/09/10 06:39:32;;;;;;;3.37;2.10;;;17.90;99.90;;;;;;6216569;23;20172;-96
2021/09/10 06:42:03;;;;;;;2.77;2.13;;;17.90;99.90;;;;;;6240804;23;20217;-95
2021/09/10 06:44:35;;;;;;;4.27;2.20;;;17.90;99.90;;;;;;6234850;23;20172;-95
2021/09/10 06:47:08;;;;;;;3.27;2.10;;;17.80;99.90;;;;;;6230641;23;20190;-96
2021/09/10 06:49:44;;;;;;;3.73;2.43;;;17.80;99.90;;;;;;6230878;23;20168;-95
2021/09/10 06:52:16;;;;;;;3.17;2.60;;;17.80;99.90;;;;;;6230514;23;20196;-94
2021/09/10 06:54:48;;;;;;;3.10;2.30;;;17.70;99.90;;;;;;6230041;23;20584;-96
2021/09/10 06:57:19;;;;;;;3.57;2.27;;;17.70;99.90;;;;;;6230024;23;20211;-96
2021/09/10 06:59:51;;;;;;;2.30;2.10;;;17.70;99.90;;;;;;6230614;23;20184;-95
2021/09/10 07:02:22;;;;;;;4.73;2.20;;;17.60;99.90;;;;;;6230467;23;20259;-96
2021/09/10 07:04:59;;;;;;;2.83;2.30;;;17.60;99.90;;;;;;6203377;23;20180;-96
2021/09/10 07:07:31;;;;;;;2.67;2.10;;;17.60;99.90;;;;;;6230640;23;20240;-96
2021/09/10 07:10:03;;;;;;;2.53;2.00;;;17.60;99.90;;;;;;6230438;23;20183;-96
2021/09/10 07:12:34;;;;;;;3.43;1.93;;;17.60;99.90;;;;;;6230778;23;20289;-95
2021/09/10 07:15:09;;;;;;;3.40;2.53;;;17.60;99.90;;;;;;6230788;23;20246;-96
2021/09/10 07:17:40;;;;;;;2.77;1.70;;;17.60;99.90;;;;;;6229140;23;20173;-95
2021/09/10 07:20:27;;;;;;;2.80;1.93;;;17.50;99.90;;;;;;6231592;23;20184;-96
2021/09/10 07:23:01;;;;;;;1.67;1.57;;;17.50;99.90;;;;;;6230750;23;20234;-95
2021/09/10 07:25:33;;;;;;;1.90;1.70;;;17.50;99.90;;;;;;6230636;23;20172;-96
2021/09/10 07:28:11;;;;;;;1.80;1.60;;;17.50;99.90;;;;;;6229432;23;20255;-95
2021/09/10 07:30:56;;;;;;;2.87;1.83;;;17.40;99.90;;;;;;6229982;23;20184;-95
2021/09/10 07:33:29;;;;;;;2.30;1.67;;;17.40;99.90;;;;;;6229919;23;20180;-95
2021/09/10 07:36:08;;;;;;;3.03;1.80;;;17.40;99.90;;;;;;6230146;23;20552;-94
2021/09/10 07:38:40;;;;;;;3.03;2.10;;;17.40;99.90;;;;;;6229620;23;20180;-95
2021/09/10 07:41:12;;;;;;;3.03;1.70;;;17.40;99.90;;;;;;6206033;23;20196;-95
2021/09/10 07:43:45;;;;;;;4.13;1.77;;;17.40;99.90;;;;;;6204857;23;20180;-94
2021/09/10 07:46:17;;;;;;;2.70;1.90;;;17.40;99.90;;;;;;6208052;23;20190;-94
2021/09/10 07:48:49;;;;;;;2.50;1.93;;;17.30;99.90;;;;;;6208135;23;20435;-94
2021/09/10 07:51:23;;;;;;;2.90;2.10;;;17.30;99.90;;;;;;6231348;23;20244;-95
2021/09/10 07:53:55;;;;;;;2.47;1.73;;;17.30;99.90;;;;;;6205775;23;20179;-94
2021/09/10 07:56:27;;;;;;;2.30;1.77;;;17.30;99.90;;;;;;6229697;23;20180;-94
2021/09/10 07:59:10;;;;;;;3.00;2.17;;;17.20;99.90;;;;;;6230658;23;20180;-95
2021/09/10 08:01:42;;;;;;;3.00;1.80;;;17.20;99.90;;;;;;6231139;23;20202;-95
2021/09/10 08:04:15;;;;;;;2.50;1.60;;;17.20;99.90;;;;;;6231122;23;20169;-94
2021/09/10 08:06:50;;;;;;;3.43;1.73;;;17.20;99.90;;;;;;6229469;23;20176;-95
2021/09/10 08:09:23;;;;;;;3.57;2.17;;;17.20;99.90;;;;;;6230996;23;20219;-94
2021/09/10 08:11:55;;;;;;;2.50;1.63;;;17.20;99.90;;;;;;6230036;23;20600;-95
2021/09/10 08:14:26;;;;;;;3.50;2.10;;;17.10;99.90;;;;;;6230924;23;20619;-95
2021/09/10 08:16:58;;;;;;;1.60;1.50;;;17.10;99.90;;;;;;6230757;23;20208;-95
2021/09/10 08:19:30;;;;;;;3.60;1.93;;;17.10;99.90;;;;;;6207121;23;20230;-95
2021/09/10 08:22:05;;;;;;;4.70;1.87;;;17.10;99.90;;;;;;6231618;23;20530;-96
2021/09/10 08:24:56;;;;;;;3.17;2.50;;;17.10;99.90;;;;;;6232705;23;20223;-95
2021/09/10 08:27:29;;;;;;;3.00;2.13;;;17.00;99.90;;;;;;6233320;23;20196;-95
2021/09/10 08:30:02;;;;;;;2.40;1.87;;;17.00;99.90;;;;;;6233249;23;20171;-95
2021/09/10 08:32:35;;;;;;;2.67;1.83;;;17.00;99.90;;;;;;6233077;23;20195;-95
2021/09/10 08:35:09;;;;;;;2.60;2.13;;;16.90;99.90;;;;;;6233636;23;20184;-94
2021/09/10 08:37:43;;;;;;;4.03;2.00;;;16.90;99.90;;;;;;6233622;23;20210;-95
2021/09/10 08:40:18;;;;;;;2.13;1.93;;;16.90;99.90;;;;;;6209501;23;20202;-95
2021/09/10 08:42:50;;;;;;;3.53;2.30;;;16.90;99.90;;;;;;6236116;23;20490;-94
2021/09/10 08:45:25;;;;;;;2.53;1.90;;;16.90;99.90;;;;;;6240479;23;20174;-94
2021/09/10 08:47:57;;;;;;;2.40;1.93;;;17.00;99.90;;;;;;6243777;23;20179;-95
2021/09/10 08:50:29;;;;;;;3.37;1.80;;;17.00;99.90;;;;;;6244431;23;20248;-94
2021/09/10 08:53:04;;;;;;;2.67;1.80;;;17.00;99.90;;;;;;6244262;23;20227;-94
2021/09/10 08:55:36;;;;;;;2.70;2.10;;;17.00;99.90;;;;;;6243274;23;20182;-95
2021/09/10 08:58:08;;;;;;;2.63;1.70;;;17.00;99.90;;;;;;6243955;23;20191;-94
2021/09/10 09:00:41;;;;;;;2.30;1.80;;;17.00;99.90;;;;;;6240526;23;20177;-95
2021/09/10 09:03:14;;;;;;;3.23;1.60;;;17.10;99.90;;;;;;6238405;23;20191;-95
2021/09/10 09:05:51;;;;;;;1.73;1.63;;;17.00;99.90;;;;;;6239546;23;20179;-93
2021/09/10 09:13:45;;;;;;;2.83;1.80;;;16.90;99.90;;;;;;6240183;23;20174;-96
2021/09/10 09:16:24;;;;;;;2.90;1.67;;;16.90;99.90;;;;;;6240268;23;20210;-95
2021/09/10 09:18:58;;;;;;;4.07;1.80;;;16.90;99.90;;;;;;6232122;23;20276;-96
2021/09/10 09:21:31;;;;;;;1.90;1.60;;;16.90;99.90;;;;;;6232426;23;20172;-95
2021/09/10 09:24:19;;;;;;;2.00;1.50;;;16.90;99.90;;;;;;6232028;23;20180;-96
2021/09/10 09:26:53;;;;;;;1.87;1.73;;;16.90;99.90;;;;;;6229739;23;20176;-96
2021/09/10 09:29:26;;;;;;;2.07;1.60;;;16.90;99.90;;;;;;6231276;23;20176;-95
2021/09/10 09:32:01;;;;;;;3.43;1.50;;;16.90;99.90;;;;;;6231393;23;20215;-96
2021/09/10 09:34:51;;;;;;;2.07;1.50;;;16.80;99.90;;;;;;6231232;23;20183;-96
2021/09/10 09:37:27;;;;;;;3.80;1.43;;;16.80;99.90;;;;;;6230592;23;20190;-96
2021/09/10 09:40:00;;;;;;;1.80;1.70;;;16.80;99.90;;;;;;6230795;23;20235;-96
2021/09/10 09:42:33;;;;;;;1.80;1.70;;;16.70;99.90;;;;;;6230812;23;20196;-96
2021/09/10 09:45:14;;;;;;;1.87;1.60;;;16.70;99.90;;;;;;6231886;23;20175;-94
2021/09/10 09:47:46;;;;;;;1.57;1.47;;;16.60;99.90;;;;;;6229354;23;20191;-96
2021/09/10 09:50:19;;;;;;;1.50;1.40;;;16.60;99.90;;;;;;6231964;23;20177;-96
2021/09/10 09:52:51;;;;;;;2.40;1.73;;;16.50;99.90;;;;;;6231369;23;20182;-95
2021/09/10 09:55:24;;;;;;;2.40;1.37;;;16.50;99.90;;;;;;6231271;23;20169;-96
2021/09/10 09:57:57;;;;;;;2.13;1.40;;;16.40;99.90;;;;;;6230314;23;20255;-96
2021/09/10 10:00:31;;;;;;;2.23;1.40;;;16.40;99.90;;;;;;6231193;23;20255;-96
2021/09/10 10:03:04;;;;;;;1.33;1.23;;;16.40;99.90;;;;;;6230675;23;20263;-96
2021/09/10 10:05:58;;;;;;;3.20;1.70;;;16.40;99.90;;;;;;6231019;23;20199;-96
2021/09/10 10:08:35;;;;;;;2.50;1.60;;;16.30;99.90;;;;;;6231141;23;20184;-95
2021/09/10 10:11:10;;;;;;;2.53;1.30;;;16.30;99.90;;;;;;6206347;23;20217;-95
2021/09/10 10:13:43;;;;;;;3.07;1.57;;;16.30;99.90;;;;;;6200147;23;20177;-95
2021/09/10 10:16:39;;;;;;;2.67;1.50;;;16.30;99.90;;;;;;6200120;23;20177;-96
2021/09/10 10:19:43;;;;;;;2.40;1.60;;;16.20;99.90;;;;;;6192414;23;20189;-95
2021/09/10 10:22:17;;;;;;;1.90;1.60;;;16.20;99.90;;;;;;6203841;23;20197;-96
2021/09/10 10:24:52;;;;;;;2.37;1.33;;;16.10;99.90;;;;;;6199642;23;20181;-96
2021/09/10 10:27:37;;;;;;;1.60;1.50;;;16.10;99.90;;;;;;6200491;23;20208;-95
2021/09/10 10:30:10;;;;;;;1.87;1.30;;;16.10;99.90;;;;;;6207432;23;20181;-95
2021/09/10 10:32:44;;;;;;;2.23;1.30;;;16.00;99.90;;;;;;6210089;23;20169;-94
2021/09/10 10:35:19;;;;;;;1.57;1.20;;;16.00;99.90;;;;;;6203075;23;20180;-93
2021/09/10 10:37:52;;;;;;;2.40;1.23;;;16.00;99.90;;;;;;6202851;23;20611;-94
2021/09/10 10:40:35;;;;;;;3.43;1.27;;;16.00;99.90;;;;;;6201349;23;20204;-94
2021/09/10 10:43:11;;;;;;;1.57;1.17;;;16.00;99.90;;;;;;6201346;23;20197;-95
2021/09/10 10:46:03;;;;;;;2.70;1.40;;;16.00;99.90;;;;;;6201171;23;20227;-95
2021/09/10 10:49:03;;;;;;;3.07;1.27;;;16.10;99.90;;;;;;6200362;23;20255;-95
2021/09/10 10:51:42;;;;;;;1.20;1.10;;;16.20;99.90;;;;;;6175360;23;20204;-95
2021/09/10 10:54:29;;;;;;;2.03;1.40;;;16.20;99.90;;;;;;6199580;23;20501;-95
2021/09/10 10:57:00;;;;;;;2.40;1.37;;;16.30;99.90;;;;;;6197634;23;20177;-95
2021/09/10 10:59:35;;;;;;;1.73;1.10;;;16.30;99.90;;;;;;6175360;23;20165;-95
2021/09/10 11:02:28;;;;;;;1.70;1.00;;;16.20;99.90;;;;;;6177496;23;20184;-96
2021/09/10 11:05:11;;;;;;;1.73;1.17;;;16.20;99.90;;;;;;6206914;23;20216;-94
2021/09/10 11:07:46;;;;;;;1.43;1.10;;;16.20;99.90;;;;;;6211860;23;20169;-96
2021/09/10 11:10:19;;;;;;;2.13;1.03;;;16.20;99.90;;;;;;6212180;23;20206;-94
2021/09/10 11:12:57;;;;;;;2.47;0.93;;;16.20;99.90;;;;;;6230585;23;20232;-94
2021/09/10 11:15:32;;;;;;;1.47;1.00;;;16.20;99.90;;;;;;6228924;23;20183;-95
2021/09/10 11:18:06;;;;;;;0.87;0.87;;;16.20;99.90;;;;;;6227710;23;20198;-95
2021/09/10 11:20:42;;;;;;;1.10;1.00;;;16.20;99.90;;;;;;6231840;23;20196;-95
2021/09/10 11:23:16;;;;;;;2.47;1.30;;;16.20;99.90;;;;;;6231217;23;20218;-95
2021/09/10 11:25:49;;;;;;;2.10;1.17;;;16.20;99.90;;;;;;6228146;23;20634;-95
2021/09/10 11:28:28;;;;;;;1.30;1.20;;;16.20;99.90;;;;;;6205843;23;20176;-96
2021/09/10 11:31:00;;;;;;;1.67;1.10;;;16.20;99.90;;;;;;6230007;23;20172;-95
2021/09/10 11:33:42;;;;;;;2.17;1.00;;;16.20;99.90;;;;;;6231982;23;20286;-95
2021/09/10 11:36:25;;;;;;;2.63;1.43;;;16.10;99.90;;;;;;6227538;23;20217;-94
2021/09/10 11:39:03;;;;;;;3.67;1.33;;;16.00;99.90;;;;;;6232763;23;20156;-95
2021/09/10 11:41:38;;;;;;;2.70;1.50;;;16.00;99.90;;;;;;6230085;23;20172;-95
2021/09/10 11:44:12;;;;;;;1.87;1.40;;;16.00;99.90;;;;;;6230497;23;20501;-95
2021/09/10 11:46:43;;;;;;;1.57;1.10;;;15.90;99.90;;;;;;6228809;23;20181;-95
2021/09/10 11:49:18;;;;;;;1.90;1.30;;;15.90;99.90;;;;;;6230314;23;20175;-95
2021/09/10 11:51:53;;;;;;;1.40;1.30;;;15.80;99.90;;;;;;6228817;23;20183;-96
2021/09/10 11:54:27;;;;;;;2.97;1.10;;;15.80;99.90;;;;;;6232221;23;20207;-94
2021/09/10 11:57:01;;;;;;;2.70;1.27;;;15.80;99.90;;;;;;6201444;23;20168;-94
2021/09/10 11:59:34;;;;;;;1.00;0.90;;;15.70;99.90;;;;;;6229927;23;20176;-94
2021/09/10 12:02:18;;;;;;;0.90;0.90;;;15.70;99.90;;;;;;6179588;23;20172;-94
2021/09/10 12:04:57;;;;;;;1.17;0.97;;;15.70;99.90;;;;;;6229804;23;20230;-94
2021/09/10 12:07:32;;;;;;;1.13;1.03;;;15.60;99.90;;;;;;6202241;23;20566;-95
2021/09/10 12:10:04;;;;;;;1.80;0.90;;;15.60;99.90;;;;;;6230120;23;20168;-95
2021/09/10 12:12:37;;;;;;;2.00;0.80;;;15.50;99.90;;;;;;6229531;23;20240;-95
2021/09/10 12:15:10;;;;;;;1.10;0.87;;;15.50;99.90;;;;;;6229057;23;20183;-95
2021/09/10 12:17:42;;;;;;;0.83;0.80;;;15.50;99.90;;;;;;6228516;23;20526;-95
2021/09/10 12:20:16;;;;;;;1.33;0.80;;;15.50;99.90;;;;;;6229593;23;20188;-95
2021/09/10 12:23:12;;;;;;;1.07;0.93;;;15.40;99.90;;;;;;6228866;23;20176;-95
2021/09/10 12:25:49;;;;;;;2.40;0.90;;;15.40;99.90;;;;;;6223563;23;20183;-95
2021/09/10 12:28:26;;;;;;;1.27;0.90;;;15.40;99.90;;;;;;6229488;23;20183;-95
2021/09/10 12:31:01;;;;;;;0.80;0.80;;;15.40;99.90;;;;;;6228232;23;20180;-95
2021/09/10 12:33:34;;;;;;;2.27;0.80;;;15.30;99.90;;;;;;6230497;23;20171;-95
2021/09/10 12:36:11;;;;;;;1.10;1.00;;;15.30;99.90;;;;;;6225835;23;20169;-95
2021/09/10 12:38:46;;;;;;;1.27;0.80;;;15.30;99.90;;;;;;6216900;23;20195;-95
2021/09/10 12:41:17;;;;;;;2.70;0.90;;;15.30;99.90;;;;;;6218907;23;20203;-95
2021/09/10 12:43:50;;;;;;;0.80;0.80;;;15.30;99.90;;;;;;6219454;23;20550;-95
2021/09/10 12:46:24;;;;;;;1.60;0.80;;;15.20;99.90;;;;;;6217774;23;20212;-94
2021/09/10 12:48:56;;;;;;;1.13;0.80;;;15.30;99.90;;;;;;6219412;23;20515;-95
2021/09/10 12:51:27;;;;;;;0.97;0.83;;;15.20;99.90;;;;;;6193603;23;20176;-94
2021/09/10 12:54:05;;;;;;;0.90;0.80;;;15.20;99.90;;;;;;6220691;23;20169;-94
2021/09/10 12:56:39;;;;;;;1.17;0.90;;;15.20;99.90;;;;;;6219976;23;20177;-95
2021/09/10 12:59:11;;;;;;;0.80;0.80;;;15.20;99.90;;;;;;6221290;23;20179;-95
2021/09/10 13:01:42;;;;;;;0.77;0.70;;;15.10;99.90;;;;;;6221725;23;20180;-95
2021/09/10 13:04:15;;;;;;;1.80;0.90;;;15.10;99.90;;;;;;6222388;23;20196;-95
2021/09/10 13:06:46;;;;;;;1.23;0.80;;;15.10;99.90;;;;;;6221223;23;20238;-95
2021/09/10 13:09:22;;;;;;;1.33;0.87;;;15.00;99.90;;;;;;6222489;23;20172;-95
2021/09/10 13:11:53;;;;;;;1.83;1.07;;;15.00;99.90;;;;;;6221540;23;20610;-95
2021/09/10 13:14:28;;;;;;;1.90;1.00;;;15.00;99.90;;;;;;6200461;23;20168;-94
2021/09/10 13:17:01;;;;;;;2.53;0.80;;;15.00;99.90;;;;;;6221467;23;20195;-95
2021/09/10 13:19:32;;;;;;;1.23;0.77;;;14.90;99.90;;;;;;6221236;23;20487;-94
2021/09/10 13:22:04;;;;;;;1.03;0.93;;;14.90;99.90;;;;;;6222097;23;20180;-94
2021/09/10 13:24:38;;;;;;;0.87;0.70;;;14.90;99.90;;;;;;6222583;23;20223;-94
2021/09/10 13:27:10;;;;;;;1.83;0.80;;;14.90;99.90;;;;;;6224116;23;20176;-95
2021/09/10 13:29:41;;;;;;;1.27;0.90;;;14.90;99.90;;;;;;6240001;23;20216;-95
2021/09/10 13:32:12;;;;;;;3.17;0.90;;;14.90;99.90;;;;;;6243365;23;20188;-94
2021/09/10 13:34:44;;;;;;;1.63;1.00;;;14.90;99.90;;;;;;6240806;23;20220;-95
2021/09/10 13:37:15;;;;;;;1.53;1.13;;;14.90;99.90;;;;;;6225855;23;20173;-95
2021/09/10 13:39:49;;;;;;;0.90;0.80;;;14.90;99.90;;;;;;6225543;23;20177;-95
2021/09/10 13:42:24;;;;;;;1.43;0.90;;;15.00;99.90;;;;;;6226130;23;20176;-95
2021/09/10 13:44:55;;;;;;;1.43;0.90;;;15.10;99.90;;;;;;6222498;23;20196;-95
2021/09/10 13:47:27;;;;;;;0.70;0.70;;;15.20;99.90;;;;;;6220624;23;20514;-95
2021/09/10 13:50:01;;;;;;;1.70;0.90;;;15.30;99.90;;;;;;6224837;23;20184;-95